createdAt,value
2018-01-12T00:02:05.592Z,27.87
2018-01-12T00:04:33.878Z,21.53
2018-01-12T00:07:02.092Z,22.87
2018-01-12T00:09:29.599Z,18.97
2018-01-12T00:11:57.081Z,16.13
2018-01-12T00:14:24.646Z,21.17
2018-01-12T00:16:52.147Z,22.97
2018-01-12T00:19:19.616Z,17.80
2018-01-12T00:21:47.159Z,23.50
2018-01-12T00:24:14.639Z,18.57
2018-01-12T00:26:42.132Z,18.10
2018-01-12T00:29:09.663Z,17.03
2018-01-12T00:31:37.928Z,20.60
2018-01-12T00:34:05.410Z,14.23
2018-01-12T00:36:33.664Z,17.07
2018-01-12T00:39:01.147Z,19.63
2018-01-12T00:41:28.720Z,15.10
2018-01-12T00:43:56.187Z,14.03
2018-01-12T00:46:23.688Z,15.40
2018-01-12T00:48:51.200Z,15.97
2018-01-12T00:51:18.708Z,15.30
2018-01-12T00:53:46.166Z,17.17
2018-01-12T00:56:14.484Z,29.70
2018-01-12T00:58:41.959Z,33.23
2018-01-12T01:01:09.461Z,26.43
2018-01-12T01:03:37.737Z,22.07
2018-01-12T01:06:05.235Z,23.10
2018-01-12T01:08:32.734Z,29.80
2018-01-12T01:11:00.216Z,23.27
2018-01-12T01:13:28.474Z,19.17
2018-01-12T01:15:55.964Z,24.10
2018-01-12T01:18:23.533Z,20.13
2018-01-12T01:20:50.995Z,21.30
2018-01-12T01:23:18.509Z,18.33
2018-01-12T01:25:46.018Z,21.17
2018-01-12T01:28:13.515Z,18.70
2018-01-12T01:30:40.983Z,23.33
2018-01-12T01:33:08.486Z,27.53
2018-01-12T01:35:35.993Z,19.77
2018-01-12T01:38:03.500Z,19.23
2018-01-12T01:40:31.029Z,15.83
2018-01-12T01:42:58.536Z,19.63
2018-01-12T01:45:26.083Z,24.77
2018-01-12T01:47:53.606Z,25.50
2018-01-12T01:50:21.879Z,28.47
2018-01-12T01:52:49.479Z,21.07
2018-01-12T01:55:16.981Z,23.30
2018-01-12T01:57:44.452Z,22.97
2018-01-12T02:00:12.056Z,20.47
2018-01-12T02:02:39.541Z,19.43
2018-01-12T02:05:07.079Z,18.43
2018-01-12T02:07:34.580Z,20.77
2018-01-12T02:10:02.058Z,19.63
2018-01-12T02:12:30.318Z,28.07
2018-01-12T02:14:57.794Z,28.67
2018-01-12T02:17:26.109Z,23.97
2018-01-12T02:19:53.606Z,24.03
2018-01-12T02:22:21.122Z,32.27
2018-01-12T02:24:48.616Z,27.70
2018-01-12T02:27:16.245Z,33.57
2018-01-12T02:29:43.738Z,22.97
2018-01-12T02:32:11.199Z,20.70
2018-01-12T02:34:38.709Z,24.43
2018-01-12T02:37:06.248Z,23.50
2018-01-12T02:39:33.757Z,30.27
2018-01-12T02:42:01.218Z,21.23
2018-01-12T02:44:28.741Z,18.93
2018-01-12T02:46:56.210Z,22.17
2018-01-12T02:49:23.736Z,21.33
2018-01-12T02:51:51.226Z,17.70
2018-01-12T02:54:18.742Z,23.80
2018-01-12T02:56:47.005Z,27.37
2018-01-12T02:59:14.515Z,25.23
2018-01-12T03:01:41.997Z,24.07
2018-01-12T03:04:09.498Z,20.13
2018-01-12T03:06:37.760Z,15.60
2018-01-12T03:09:06.024Z,15.53
2018-01-12T03:11:33.512Z,15.13
2018-01-12T03:14:01.767Z,17.23
2018-01-12T03:16:30.039Z,18.03
2018-01-12T03:18:57.533Z,13.87
2018-01-12T03:21:25.014Z,22.20
2018-01-12T03:23:52.515Z,16.93
2018-01-12T03:26:20.768Z,20.53
2018-01-12T03:28:48.263Z,14.73
2018-01-12T03:31:15.737Z,17.17
2018-01-12T03:33:43.276Z,17.40
2018-01-12T03:36:10.776Z,14.63
2018-01-12T03:38:38.276Z,19.40
2018-01-12T03:41:05.752Z,16.13
2018-01-12T03:43:33.295Z,19.17
2018-01-12T03:46:00.765Z,14.77
2018-01-12T03:48:28.223Z,14.53
2018-01-12T03:50:56.485Z,17.27
2018-01-12T03:53:23.966Z,16.43
2018-01-12T03:55:53.859Z,18.77
2018-01-12T03:58:21.322Z,15.30
2018-01-12T04:00:48.927Z,19.07
2018-01-12T04:03:16.397Z,21.00
2018-01-12T04:05:43.911Z,16.77
2018-01-12T04:08:12.146Z,27.23
2018-01-12T04:10:39.688Z,29.43
2018-01-12T04:13:07.158Z,16.60
2018-01-12T04:15:34.644Z,18.27
2018-01-12T04:18:02.140Z,16.60
2018-01-12T04:20:29.612Z,24.80
2018-01-12T04:22:57.134Z,20.57
2018-01-12T04:25:25.377Z,19.17
2018-01-12T04:27:52.856Z,13.70
2018-01-12T04:30:20.353Z,13.90
2018-01-12T04:32:47.818Z,19.83
2018-01-12T04:35:15.326Z,22.23
2018-01-12T04:37:42.846Z,19.07
2018-01-12T04:40:14.572Z,17.47
2018-01-12T04:42:42.079Z,20.77
2018-01-12T04:45:09.687Z,23.50
2018-01-12T04:47:37.195Z,30.47
2018-01-12T04:50:04.759Z,24.57
2018-01-12T04:52:32.300Z,26.27
2018-01-12T04:55:00.567Z,29.77
2018-01-12T04:57:28.057Z,27.10
2018-01-12T04:59:55.578Z,20.73
2018-01-12T05:02:23.044Z,19.83
2018-01-12T05:04:50.572Z,26.60
2018-01-12T05:07:18.222Z,21.90
2018-01-12T05:09:46.456Z,22.37
2018-01-12T05:12:13.959Z,25.87
2018-01-12T05:14:41.693Z,19.33
2018-01-12T05:17:09.244Z,29.40
2018-01-12T05:19:36.761Z,25.07
2018-01-12T05:22:04.285Z,22.53
2018-01-12T05:24:32.531Z,19.23
2018-01-12T05:27:00.160Z,26.50
2018-01-12T05:29:27.624Z,25.43
2018-01-12T05:31:55.125Z,20.70
2018-01-12T05:34:22.605Z,25.20
2018-01-12T05:36:50.096Z,27.67
2018-01-12T05:39:17.588Z,27.43
2018-01-12T05:41:45.108Z,20.47
2018-01-12T05:44:12.579Z,20.73
2018-01-12T05:46:40.093Z,19.23
2018-01-12T05:49:08.330Z,23.37
2018-01-12T05:51:35.868Z,26.27
2018-01-12T05:54:03.355Z,25.80
2018-01-12T05:56:30.859Z,25.83
2018-01-12T05:58:58.330Z,24.80
2018-01-12T06:01:37.779Z,22.60
2018-01-12T06:04:17.151Z,22.07
2018-01-12T06:06:44.653Z,25.00
2018-01-12T06:09:12.135Z,21.03
2018-01-12T06:11:39.756Z,21.83
2018-01-12T06:14:08.015Z,27.00
2018-01-12T06:16:35.483Z,23.17
2018-01-12T06:19:03.837Z,28.70
2018-01-12T06:21:31.325Z,27.07
2018-01-12T06:23:59.618Z,23.57
2018-01-12T06:26:27.136Z,30.90
2018-01-12T06:28:54.642Z,26.97
2018-01-12T06:31:22.124Z,25.80
2018-01-12T06:33:49.610Z,22.83
2018-01-12T06:36:17.108Z,28.83
2018-01-12T06:38:44.598Z,21.93
2018-01-12T06:41:12.070Z,28.70
2018-01-12T06:43:39.588Z,33.33
2018-01-12T06:46:07.068Z,35.03
2018-01-12T06:48:34.549Z,34.50
2018-01-12T06:51:02.045Z,34.77
2018-01-12T06:53:29.548Z,41.77
2018-01-12T06:55:57.047Z,24.43
2018-01-12T06:58:25.325Z,28.73
2018-01-12T07:00:53.621Z,31.00
2018-01-12T07:03:21.524Z,23.13
2018-01-12T07:05:49.980Z,26.10
2018-01-12T07:08:17.449Z,36.10
2018-01-12T07:10:44.965Z,37.77
2018-01-12T07:13:13.256Z,30.77
2018-01-12T07:15:40.737Z,29.67
2018-01-12T07:18:08.248Z,37.63
2018-01-12T07:20:57.443Z,35.93
2018-01-12T07:23:36.804Z,27.13
2018-01-12T07:26:04.273Z,44.37
2018-01-12T07:28:31.785Z,38.63
2018-01-12T07:30:59.251Z,35.63
2018-01-12T07:33:26.763Z,30.87
2018-01-12T07:35:54.228Z,27.93
2018-01-12T07:38:21.729Z,23.87
2018-01-12T07:40:49.339Z,37.17
2018-01-12T07:43:16.997Z,33.50
2018-01-12T07:45:44.467Z,36.77
2018-01-12T07:48:12.010Z,36.37
2018-01-12T07:50:39.486Z,32.17
2018-01-12T07:53:12.902Z,28.27
2018-01-12T07:55:41.152Z,35.83
2018-01-12T07:58:08.645Z,31.73
2018-01-12T08:00:41.911Z,27.53
2018-01-12T08:03:09.379Z,41.17
2018-01-12T08:05:37.658Z,30.70
2018-01-12T08:08:05.942Z,21.73
2018-01-12T08:10:34.216Z,21.00
2018-01-12T08:13:01.695Z,35.83
2018-01-12T08:15:29.202Z,31.63
2018-01-12T08:17:56.676Z,24.33
2018-01-12T08:20:24.967Z,24.73
2018-01-12T08:22:53.208Z,20.20
2018-01-12T08:25:20.688Z,24.40
2018-01-12T08:27:48.959Z,25.77
2018-01-12T08:30:16.437Z,32.90
2018-01-12T08:32:43.960Z,44.00
2018-01-12T08:35:11.426Z,34.53
2018-01-12T08:37:38.934Z,40.40
2018-01-12T08:40:06.404Z,39.10
2018-01-12T08:42:33.931Z,23.27
2018-01-12T08:45:01.414Z,26.97
2018-01-12T08:47:28.934Z,28.50
2018-01-12T08:49:57.163Z,28.53
2018-01-12T08:52:24.693Z,19.13
2018-01-12T08:54:52.174Z,21.20
2018-01-12T08:57:19.715Z,22.50
2018-01-12T08:59:47.226Z,15.67
2018-01-12T09:02:14.699Z,16.80
2018-01-12T09:04:42.966Z,20.07
2018-01-12T09:07:10.441Z,15.70
2018-01-12T09:09:37.944Z,22.43
2018-01-12T09:12:06.342Z,16.73
2018-01-12T09:14:45.577Z,19.70
2018-01-12T09:17:13.059Z,18.93
2018-01-12T09:19:48.216Z,28.50
2018-01-12T09:22:27.559Z,28.27
2018-01-12T09:24:55.074Z,28.37
2018-01-12T09:27:22.542Z,29.43
2018-01-12T09:29:50.824Z,31.57
2018-01-12T09:32:19.097Z,32.23
2018-01-12T09:35:02.234Z,23.37
2018-01-12T09:37:30.700Z,29.50
2018-01-12T09:40:09.979Z,28.03
2018-01-12T09:42:37.510Z,28.50
2018-01-12T09:45:05.758Z,26.10
2018-01-12T09:47:40.046Z,21.60
2018-01-12T09:50:07.524Z,25.10
2018-01-12T09:52:35.029Z,25.63
2018-01-12T09:55:02.563Z,29.10
2018-01-12T09:57:30.833Z,24.77
2018-01-12T09:59:59.095Z,22.83
2018-01-12T10:02:26.566Z,22.90
2018-01-12T10:04:54.108Z,22.63
2018-01-12T10:07:21.592Z,19.50
2018-01-12T10:09:49.865Z,21.60
2018-01-12T10:12:18.098Z,21.53
2018-01-12T10:14:45.624Z,19.00
2018-01-12T10:17:13.152Z,16.97
2018-01-12T10:22:49.708Z,17.40
2018-01-12T10:25:17.204Z,18.77
2018-01-12T10:27:45.462Z,22.50
2018-01-12T10:30:22.887Z,20.27
2018-01-12T10:33:05.532Z,17.93
2018-01-12T10:35:33.016Z,18.63
2018-01-12T10:38:00.521Z,20.17
2018-01-12T10:40:51.424Z,18.50
2018-01-12T10:43:18.972Z,15.40
2018-01-12T10:45:58.978Z,17.03
2018-01-12T10:48:39.190Z,16.80
2018-01-12T10:53:48.243Z,17.30
2018-01-12T10:56:15.725Z,16.40
2018-01-12T10:58:43.236Z,15.60
2018-01-12T11:01:11.483Z,17.00
2018-01-12T11:03:39.033Z,16.63
2018-01-12T11:06:07.926Z,14.43
2018-01-12T11:08:36.652Z,18.57
2018-01-12T11:11:04.959Z,17.03
2018-01-12T11:13:32.441Z,18.67
2018-01-12T11:15:59.960Z,19.37
2018-01-12T11:18:27.449Z,16.73
2018-01-12T11:20:54.973Z,18.53
2018-01-12T11:23:22.441Z,18.57
2018-01-12T11:25:49.955Z,18.30
2018-01-12T11:28:17.442Z,18.27
2018-01-12T11:30:44.952Z,17.33
2018-01-12T11:33:12.432Z,17.57
2018-01-12T11:35:40.731Z,17.03
2018-01-12T11:38:08.993Z,17.00
2018-01-12T11:40:36.499Z,19.33
2018-01-12T11:43:03.970Z,14.93
2018-01-12T11:45:31.514Z,16.73
2018-01-12T11:47:59.016Z,16.77
2018-01-12T11:50:26.499Z,16.17
2018-01-12T11:52:54.805Z,18.13
2018-01-12T11:55:22.271Z,24.13
2018-01-12T11:57:49.773Z,22.33
2018-01-12T12:00:17.252Z,22.67
2018-01-12T12:02:45.530Z,19.47
2018-01-12T12:05:13.799Z,21.20
2018-01-12T12:07:42.071Z,20.30
2018-01-12T12:10:10.325Z,20.00
2018-01-12T12:12:37.826Z,21.97
2018-01-12T12:15:05.321Z,19.50
2018-01-12T12:17:32.844Z,21.77
2018-01-12T12:20:00.331Z,21.77
2018-01-12T12:22:27.962Z,25.30
2018-01-12T12:24:55.448Z,19.50
2018-01-12T12:27:22.929Z,22.03
2018-01-12T12:29:50.462Z,19.23
2018-01-12T12:32:17.980Z,22.70
2018-01-12T12:34:46.239Z,20.70
2018-01-12T12:37:13.733Z,21.43
2018-01-12T12:39:41.245Z,18.67
2018-01-12T12:42:08.719Z,16.83
2018-01-12T12:44:36.991Z,17.77
2018-01-12T12:47:05.268Z,19.87
2018-01-12T12:49:33.547Z,20.03
2018-01-12T12:52:01.811Z,18.87
2018-01-12T12:54:29.323Z,15.27
2018-01-12T12:56:56.805Z,17.10
2018-01-12T12:59:24.364Z,15.37
2018-01-12T13:01:51.850Z,18.03
2018-01-12T13:04:19.374Z,16.63
2018-01-12T13:06:46.893Z,19.87
2018-01-12T13:09:15.143Z,17.27
2018-01-12T13:11:42.707Z,15.57
2018-01-12T13:14:10.179Z,16.87
2018-01-12T13:16:37.786Z,15.07
2018-01-12T13:19:05.296Z,16.53
2018-01-12T13:21:32.767Z,16.67
2018-01-12T13:24:00.284Z,14.13
2018-01-12T13:26:28.496Z,12.97
2018-01-12T13:28:56.025Z,12.97
2018-01-12T13:31:23.583Z,14.53
2018-01-12T13:33:51.062Z,14.70
2018-01-12T13:36:18.572Z,15.40
2018-01-12T13:38:46.083Z,15.97
2018-01-12T13:41:13.573Z,18.07
2018-01-12T13:43:41.141Z,15.83
2018-01-12T13:46:08.593Z,15.67
2018-01-12T13:48:36.105Z,14.97
2018-01-12T13:51:03.611Z,17.97
2018-01-12T13:53:31.155Z,14.57
2018-01-12T13:55:58.628Z,16.00
2018-01-12T13:58:26.147Z,16.23
2018-01-12T14:00:54.354Z,18.90
2018-01-12T14:03:21.883Z,17.73
2018-01-12T14:05:50.125Z,14.37
2018-01-12T14:08:17.684Z,15.53
2018-01-12T14:10:45.180Z,17.10
2018-01-12T14:13:12.721Z,15.90
2018-01-12T14:15:40.215Z,14.47
2018-01-12T14:18:07.711Z,15.63
2018-01-12T14:20:35.222Z,15.33
2018-01-12T14:23:02.725Z,15.87
2018-01-12T14:25:30.256Z,16.07
2018-01-12T14:27:57.747Z,16.90
2018-01-12T14:30:25.365Z,13.67
2018-01-12T14:32:52.844Z,13.50
2018-01-12T14:35:20.364Z,15.83
2018-01-12T14:37:47.893Z,14.40
2018-01-12T14:40:15.424Z,12.70
2018-01-12T14:42:42.955Z,14.97
2018-01-12T14:45:10.959Z,14.43
2018-01-12T14:47:38.485Z,14.43
2018-01-12T14:50:05.989Z,17.10
2018-01-12T14:52:33.531Z,15.97
2018-01-12T14:55:01.005Z,14.90
2018-01-12T14:57:28.592Z,15.80
2018-01-12T14:59:56.851Z,20.73
2018-01-12T15:02:24.391Z,19.47
2018-01-12T15:04:51.911Z,19.77
2018-01-12T15:07:19.425Z,15.67
2018-01-12T15:09:47.253Z,18.67
2018-01-12T15:12:14.744Z,21.60
2018-01-12T15:14:42.275Z,19.83
2018-01-12T15:17:09.777Z,20.57
2018-01-12T15:19:38.072Z,19.40
2018-01-12T15:22:05.554Z,20.37
2018-01-12T15:24:33.067Z,20.10
2018-01-12T15:27:01.315Z,24.70
2018-01-12T15:29:29.179Z,25.07
2018-01-12T15:31:56.673Z,19.17
2018-01-12T15:34:25.665Z,19.63
2018-01-12T15:36:53.205Z,22.47
2018-01-12T15:39:20.936Z,24.00
2018-01-12T15:41:48.508Z,22.77
2018-01-12T15:44:15.975Z,25.07
2018-01-12T15:46:43.510Z,21.47
2018-01-12T15:49:10.988Z,21.17
2018-01-12T15:51:38.514Z,20.07
2018-01-12T15:54:06.008Z,18.23
2018-01-12T15:56:36.382Z,19.20
2018-01-12T15:59:03.954Z,20.20
2018-01-12T16:01:31.467Z,18.83
2018-01-12T16:03:58.953Z,22.57
2018-01-12T16:06:26.484Z,20.00
2018-01-12T16:08:53.977Z,15.27
2018-01-12T16:11:21.484Z,16.93
2018-01-12T16:13:49.003Z,19.03
2018-01-12T16:16:16.486Z,22.13
2018-01-12T16:18:44.012Z,23.97
2018-01-12T16:21:11.498Z,23.00
2018-01-12T16:23:39.208Z,35.50
2018-01-12T16:26:07.124Z,31.50
2018-01-12T16:28:34.685Z,25.83
2018-01-12T16:31:03.132Z,25.60
2018-01-12T16:33:30.677Z,35.23
2018-01-12T16:35:58.500Z,37.23
2018-01-12T16:38:26.102Z,33.47
2018-01-12T16:40:54.458Z,29.30
2018-01-12T16:43:21.984Z,34.07
2018-01-12T16:45:49.466Z,41.73
2018-01-12T16:48:16.986Z,31.40
2018-01-12T16:50:45.455Z,30.90
2018-01-12T16:53:13.299Z,29.83
2018-01-12T16:55:41.619Z,34.53
2018-01-12T16:58:09.093Z,36.30
2018-01-12T17:00:36.630Z,36.50
2018-01-12T17:03:04.135Z,26.00
2018-01-12T17:05:31.685Z,25.73
2018-01-12T17:08:00.047Z,26.83
2018-01-12T17:10:27.568Z,27.27
2018-01-12T17:12:55.077Z,43.90
2018-01-12T17:15:22.573Z,41.13
2018-01-12T17:17:50.841Z,29.60
2018-01-12T17:20:19.151Z,27.23
2018-01-12T17:22:46.650Z,28.60
2018-01-12T17:25:14.249Z,25.33
2018-01-12T17:27:41.728Z,20.23
2018-01-12T17:30:09.243Z,33.50
2018-01-12T17:32:37.529Z,33.67
2018-01-12T17:35:05.773Z,59.20
2018-01-12T17:37:33.300Z,49.10
2018-01-12T17:40:00.808Z,38.90
2018-01-12T17:42:28.334Z,44.93
2018-01-12T17:44:55.808Z,45.13
2018-01-12T17:47:23.345Z,44.83
2018-01-12T17:49:51.685Z,43.93
2018-01-12T17:52:19.159Z,47.93
2018-01-12T17:54:46.672Z,47.63
2018-01-12T17:57:14.537Z,35.33
2018-01-12T17:59:42.670Z,34.47
2018-01-12T18:02:10.390Z,43.50
2018-01-12T18:04:38.663Z,49.53
2018-01-12T18:07:06.937Z,49.13
2018-01-12T18:09:34.436Z,34.27
2018-01-12T18:12:01.918Z,32.47
2018-01-12T18:14:29.436Z,43.07
2018-01-12T18:16:56.920Z,48.00
2018-01-12T18:19:24.420Z,34.77
2018-01-12T18:21:51.928Z,36.20
2018-01-12T18:24:19.609Z,38.83
2018-01-12T18:26:47.117Z,35.83
2018-01-12T18:29:15.402Z,33.53
2018-01-12T18:31:42.902Z,40.00
2018-01-12T18:34:10.402Z,41.13
2018-01-12T18:36:37.910Z,37.77
2018-01-12T18:39:05.411Z,37.07
2018-01-12T18:41:32.920Z,33.37
2018-01-12T18:44:00.419Z,23.77
2018-01-12T18:46:27.941Z,41.33
2018-01-12T18:48:55.476Z,31.60
2018-01-12T18:51:22.989Z,35.87
2018-01-12T18:53:50.492Z,28.70
2018-01-12T18:56:19.229Z,39.53
2018-01-12T18:58:46.728Z,32.63
2018-01-12T19:01:15.021Z,27.13
2018-01-12T19:03:43.072Z,34.43
2018-01-12T19:06:11.365Z,42.83
2018-01-12T19:08:39.151Z,37.07
2018-01-12T19:11:06.651Z,34.17
2018-01-12T19:13:34.185Z,52.47
2018-01-12T19:16:01.940Z,38.67
2018-01-12T19:18:29.552Z,41.40
2018-01-12T19:20:58.032Z,49.47
2018-01-12T19:23:25.870Z,57.57
2018-01-12T19:25:53.389Z,53.33
2018-01-12T19:28:20.903Z,59.47
2018-01-12T19:30:49.207Z,44.93
2018-01-12T19:33:16.764Z,64.10
2018-01-12T19:35:44.262Z,57.97
2018-01-12T19:38:11.930Z,54.77
2018-01-12T19:40:39.421Z,48.67
2018-01-12T19:43:07.683Z,44.87
2018-01-12T19:45:35.556Z,42.53
2018-01-12T19:48:03.945Z,51.13
2018-01-12T19:50:32.226Z,51.40
2018-01-12T19:53:00.467Z,39.87
2018-01-12T19:55:28.037Z,62.43
2018-01-12T19:57:55.514Z,53.73
2018-01-12T20:00:23.065Z,41.33
2018-01-12T20:02:50.543Z,52.67
2018-01-12T20:05:18.051Z,59.63
2018-01-12T20:07:45.525Z,59.57
2018-01-12T20:10:14.254Z,72.10
2018-01-12T20:12:41.743Z,63.97
2018-01-12T20:15:09.763Z,80.30
2018-01-12T20:17:37.307Z,59.87
2018-01-12T20:20:05.441Z,63.53
2018-01-12T20:22:32.936Z,51.50
2018-01-12T20:25:00.449Z,56.23
2018-01-12T20:27:27.976Z,51.57
2018-01-12T20:29:56.244Z,57.53
2018-01-12T20:32:25.331Z,63.23
2018-01-12T20:34:52.906Z,67.30
2018-01-12T20:37:21.203Z,63.57
2018-01-12T20:39:48.724Z,66.57
2018-01-12T20:42:16.321Z,47.87
2018-01-12T20:44:43.853Z,42.57
2018-01-12T20:47:12.162Z,51.77
2018-01-12T20:49:39.703Z,41.50
2018-01-12T20:52:07.313Z,35.60
2018-01-12T20:54:34.818Z,40.37
2018-01-12T20:57:02.344Z,38.33
2018-01-12T20:59:29.852Z,41.40
2018-01-12T21:01:57.351Z,60.20
2018-01-12T21:04:25.366Z,60.90
2018-01-12T21:06:52.861Z,62.00
2018-01-12T21:09:20.375Z,75.93
2018-01-12T21:11:47.884Z,68.57
2018-01-12T21:14:15.438Z,63.17
2018-01-12T21:16:42.933Z,47.53
2018-01-12T21:19:10.416Z,75.07
2018-01-12T21:21:37.934Z,68.27
2018-01-12T21:24:05.437Z,91.73
2018-01-12T21:26:32.958Z,81.73
2018-01-12T21:29:00.451Z,65.63
2018-01-12T21:31:27.987Z,62.63
2018-01-12T21:33:55.461Z,75.20
2018-01-12T21:36:22.982Z,54.00
2018-01-12T21:38:50.501Z,46.63
2018-01-12T21:41:18.187Z,51.50
2018-01-12T21:43:45.686Z,64.10
2018-01-12T21:46:14.689Z,67.27
2018-01-12T21:48:42.997Z,62.20
2018-01-12T21:51:10.514Z,34.40
2018-01-12T21:53:40.212Z,44.70
2018-01-12T21:56:07.965Z,52.57
2018-01-12T21:58:35.512Z,50.90
2018-01-12T22:01:03.015Z,50.00
2018-01-12T22:03:30.522Z,44.97
2018-01-12T22:05:57.995Z,50.07
2018-01-12T22:08:25.826Z,34.23
2018-01-12T22:10:53.296Z,58.20
2018-01-12T22:13:20.797Z,50.67
2018-01-12T22:15:48.294Z,35.27
2018-01-12T22:18:15.790Z,53.20
2018-01-12T22:20:43.285Z,44.90
2018-01-12T22:23:11.542Z,51.53
2018-01-12T22:25:39.023Z,38.47
2018-01-12T22:28:07.296Z,47.97
2018-01-12T22:30:35.531Z,44.40
2018-01-12T22:33:03.026Z,37.37
2018-01-12T22:35:31.285Z,50.20
2018-01-12T22:37:58.794Z,48.57
2018-01-12T22:40:26.273Z,47.93
2018-01-12T22:42:53.774Z,40.00
2018-01-12T22:45:22.040Z,30.70
2018-01-12T22:47:49.562Z,39.63
2018-01-12T22:50:17.027Z,40.27
2018-01-12T22:52:44.553Z,41.17
2018-01-12T22:55:13.455Z,40.13
2018-01-12T22:57:40.994Z,37.07
2018-01-12T23:00:08.474Z,47.33
2018-01-12T23:02:35.983Z,46.37
2018-01-12T23:05:03.462Z,34.17
2018-01-12T23:07:31.016Z,40.50
2018-01-12T23:09:59.286Z,50.93
2018-01-12T23:12:27.522Z,44.87
2018-01-12T23:14:55.050Z,35.47
2018-01-12T23:17:22.543Z,34.93
2018-01-12T23:19:50.045Z,35.20
2018-01-12T23:22:18.284Z,40.50
2018-01-12T23:24:45.825Z,50.73
2018-01-12T23:27:13.292Z,34.07
2018-01-12T23:29:40.769Z,41.00
2018-01-12T23:32:08.301Z,43.37
2018-01-12T23:34:35.839Z,53.23
2018-01-12T23:37:03.311Z,51.77
2018-01-12T23:39:30.777Z,46.90
2018-01-12T23:41:58.330Z,45.60
2018-01-12T23:44:25.812Z,39.40
2018-01-12T23:46:53.324Z,43.23
2018-01-12T23:49:20.787Z,39.60
2018-01-12T23:51:48.344Z,38.87
2018-01-12T23:54:15.835Z,37.83
2018-01-12T23:56:43.330Z,34.03
2018-01-12T23:59:11.574Z,32.07
